createdAt,value
2018-09-14T00:00:59.131Z,3.80
2018-09-14T00:03:30.402Z,3.03
2018-09-14T00:06:01.087Z,4.17
2018-09-14T00:08:32.361Z,5.43
2018-09-14T00:11:03.518Z,3.77
2018-09-14T00:13:34.479Z,5.47
2018-09-14T00:16:05.943Z,3.67
2018-09-14T00:18:37.841Z,6.33
2018-09-14T00:21:10.014Z,5.33
2018-09-14T00:23:41.724Z,4.10
2018-09-14T00:26:14.249Z,3.17
2018-09-14T00:28:45.211Z,4.37
2018-09-14T00:31:16.246Z,4.53
2018-09-14T00:33:47.789Z,3.43
2018-09-14T00:36:18.797Z,3.83
2018-09-14T00:38:50.308Z,3.97
2018-09-14T00:41:21.923Z,2.83
2018-09-14T00:43:52.577Z,5.83
2018-09-14T00:46:24.006Z,5.40
2018-09-14T00:48:55.183Z,4.30
2018-09-14T00:51:27.496Z,3.47
2018-09-14T00:53:58.461Z,3.53
2018-09-14T00:56:29.422Z,4.70
2018-09-14T00:59:00.385Z,4.87
2018-09-14T01:01:32.375Z,2.77
2018-09-14T01:04:04.009Z,5.73
2018-09-14T01:06:36.083Z,3.27
2018-09-14T01:09:15.247Z,3.80
2018-09-14T01:11:48.468Z,3.40
2018-09-14T01:14:21.200Z,5.17
2018-09-14T01:16:52.922Z,4.67
2018-09-14T01:19:23.961Z,3.63
2018-09-14T01:21:56.986Z,3.77
2018-09-14T01:24:28.293Z,3.60
2018-09-14T01:26:59.686Z,3.70
2018-09-14T01:29:30.625Z,3.63
2018-09-14T01:32:01.354Z,3.10
2018-09-14T01:34:33.280Z,4.47
2018-09-14T01:37:04.182Z,4.30
2018-09-14T01:39:36.063Z,4.43
2018-09-14T01:42:07.608Z,4.93
2018-09-14T01:44:38.613Z,4.30
2018-09-14T01:47:09.469Z,4.03
2018-09-14T01:49:41.199Z,3.67
2018-09-14T01:52:12.151Z,4.43
2018-09-14T01:54:44.092Z,4.07
2018-09-14T01:57:15.916Z,4.23
2018-09-14T01:59:47.040Z,5.03
2018-09-14T02:02:18.059Z,4.73
2018-09-14T02:04:52.075Z,4.97
2018-09-14T02:07:22.767Z,4.43
2018-09-14T02:09:53.581Z,4.63
2018-09-14T02:12:25.100Z,4.33
2018-09-14T02:14:56.682Z,5.77
2018-09-14T02:17:27.714Z,4.40
2018-09-14T02:19:58.966Z,6.33
2018-09-14T02:22:29.980Z,5.67
2018-09-14T02:25:01.526Z,3.97
2018-09-14T02:27:32.628Z,5.33
2018-09-14T02:30:05.094Z,3.83
2018-09-14T02:32:36.354Z,4.40
2018-09-14T02:35:08.898Z,4.33
2018-09-14T02:37:40.623Z,4.87
2018-09-14T02:40:12.545Z,4.90
2018-09-14T02:42:43.365Z,4.83
2018-09-14T02:45:14.440Z,4.23
2018-09-14T02:47:45.590Z,4.47
2018-09-14T02:50:17.765Z,4.80
2018-09-14T02:52:48.884Z,5.83
2018-09-14T02:55:20.753Z,5.23
2018-09-14T02:57:51.869Z,6.53
2018-09-14T03:00:23.510Z,4.37
2018-09-14T03:02:55.566Z,5.40
2018-09-14T03:05:26.294Z,4.40
2018-09-14T03:08:01.083Z,4.73
2018-09-14T03:10:33.586Z,3.80
2018-09-14T03:13:06.597Z,4.77
2018-09-14T03:15:38.786Z,4.70
2018-09-14T03:18:10.833Z,6.83
2018-09-14T03:20:42.251Z,5.47
2018-09-14T03:23:13.831Z,4.80
2018-09-14T03:25:45.815Z,5.13
2018-09-14T03:28:17.474Z,3.63
2018-09-14T03:30:48.314Z,5.20
2018-09-14T03:33:19.292Z,4.60
2018-09-14T03:35:51.738Z,4.70
2018-09-14T03:38:22.898Z,3.80
2018-09-14T03:40:54.448Z,5.90
2018-09-14T03:43:26.244Z,4.70
2018-09-14T03:45:57.349Z,4.67
2018-09-14T03:48:29.362Z,5.13
2018-09-14T03:51:00.902Z,3.57
2018-09-14T03:53:33.773Z,3.70
2018-09-14T03:56:04.613Z,3.60
2018-09-14T03:58:35.642Z,5.40
2018-09-14T04:01:06.824Z,6.30
2018-09-14T04:03:37.885Z,7.73
2018-09-14T04:06:08.694Z,3.10
2018-09-14T04:08:39.596Z,5.47
2018-09-14T04:11:10.452Z,4.20
2018-09-14T04:13:41.653Z,5.97
2018-09-14T04:16:12.958Z,5.83
2018-09-14T04:18:48.696Z,5.27
2018-09-14T04:21:19.335Z,5.03
2018-09-14T04:23:50.284Z,4.20
2018-09-14T04:26:21.107Z,6.20
2018-09-14T04:28:52.125Z,3.30
2018-09-14T04:31:23.633Z,5.77
2018-09-14T04:33:54.283Z,4.07
2018-09-14T04:36:25.843Z,3.27
2018-09-14T04:38:56.636Z,2.73
2018-09-14T04:41:27.684Z,3.37
2018-09-14T04:43:58.867Z,3.13
2018-09-14T04:46:29.791Z,4.13
2018-09-14T04:49:00.854Z,4.37
2018-09-14T04:51:32.664Z,4.53
2018-09-14T04:54:04.854Z,5.17
2018-09-14T04:56:36.024Z,4.33
2018-09-14T04:59:07.790Z,4.00
2018-09-14T05:01:39.055Z,4.30
2018-09-14T05:04:10.520Z,3.80
2018-09-14T05:06:41.843Z,4.40
2018-09-14T05:09:12.933Z,4.57
2018-09-14T05:11:43.676Z,4.37
2018-09-14T05:14:14.489Z,3.93
2018-09-14T05:16:45.623Z,10.40
2018-09-14T05:19:16.345Z,4.63
2018-09-14T05:21:47.435Z,4.67
2018-09-14T05:24:18.423Z,4.20
2018-09-14T05:26:49.320Z,4.63
2018-09-14T05:29:20.796Z,5.37
2018-09-14T05:31:51.852Z,4.40
2018-09-14T05:34:22.740Z,4.80
2018-09-14T05:36:53.486Z,5.00
2018-09-14T05:39:24.212Z,6.70
2018-09-14T05:41:55.837Z,5.53
2018-09-14T05:44:27.247Z,7.60
2018-09-14T05:46:58.040Z,5.53
2018-09-14T05:49:28.812Z,5.17
2018-09-14T05:51:59.562Z,4.97
2018-09-14T05:54:30.479Z,5.97
2018-09-14T05:57:01.284Z,6.23
2018-09-14T05:59:31.870Z,4.80
2018-09-14T06:02:02.780Z,8.33
2018-09-14T06:04:33.477Z,7.43
2018-09-14T06:07:04.943Z,7.20
2018-09-14T06:09:35.625Z,6.40
2018-09-14T06:12:06.748Z,5.70
2018-09-14T06:14:37.732Z,7.93
2018-09-14T06:17:08.918Z,5.50
2018-09-14T06:19:40.837Z,4.33
2018-09-14T06:22:12.224Z,5.23
2018-09-14T06:24:43.078Z,4.73
2018-09-14T06:27:14.229Z,3.97
2018-09-14T06:29:45.521Z,4.97
2018-09-14T06:32:16.388Z,6.53
2018-09-14T06:34:47.476Z,5.77
2018-09-14T06:37:18.170Z,10.03
2018-09-14T06:39:49.055Z,10.13
2018-09-14T06:42:20.273Z,7.83
2018-09-14T06:44:52.615Z,6.53
2018-09-14T06:47:23.197Z,8.07
2018-09-14T06:49:54.465Z,7.07
2018-09-14T06:52:25.386Z,11.67
2018-09-14T06:54:58.105Z,8.43
2018-09-14T06:57:28.932Z,8.60
2018-09-14T06:59:59.773Z,14.27
2018-09-14T07:02:30.758Z,11.03
2018-09-14T07:05:01.366Z,9.50
2018-09-14T07:07:32.525Z,10.17
2018-09-14T07:10:05.414Z,11.00
2018-09-14T07:12:36.384Z,10.87
2018-09-14T07:15:08.260Z,12.27
2018-09-14T07:17:39.654Z,13.17
2018-09-14T07:20:11.955Z,14.00
2018-09-14T07:22:43.251Z,13.17
2018-09-14T07:25:13.993Z,14.07
2018-09-14T07:27:44.710Z,13.57
2018-09-14T07:30:16.175Z,14.60
2018-09-14T07:32:47.002Z,12.33
2018-09-14T07:35:17.737Z,14.23
2018-09-14T07:37:48.517Z,13.03
2018-09-14T07:40:19.395Z,15.43
2018-09-14T07:42:50.080Z,14.80
2018-09-14T07:45:20.979Z,14.13
2018-09-14T07:47:51.946Z,15.63
2018-09-14T07:50:22.361Z,15.97
2018-09-14T07:52:53.431Z,16.00
2018-09-14T07:55:24.469Z,14.37
2018-09-14T07:57:55.502Z,16.37
2018-09-14T08:00:26.146Z,13.93
2018-09-14T08:02:56.756Z,17.03
2018-09-14T08:05:28.109Z,15.80
2018-09-14T08:07:58.621Z,17.83
2018-09-14T08:10:29.254Z,15.70
2018-09-14T08:12:59.964Z,19.47
2018-09-14T08:15:30.744Z,18.33
2018-09-14T08:18:01.411Z,18.13
2018-09-14T08:20:32.417Z,18.27
2018-09-14T08:23:04.514Z,19.67
2018-09-14T08:25:35.783Z,19.10
2018-09-14T08:28:06.823Z,15.63
2018-09-14T08:30:38.384Z,15.60
2018-09-14T08:33:10.055Z,16.90
2018-09-14T08:35:42.728Z,19.30
2018-09-14T08:38:13.558Z,17.70
2018-09-14T08:40:44.738Z,15.23
2018-09-14T08:43:16.271Z,14.97
2018-09-14T08:45:47.299Z,15.90
2018-09-14T08:48:18.196Z,15.47
2018-09-14T08:50:49.541Z,16.67
2018-09-14T08:53:21.768Z,14.90
2018-09-14T08:55:55.819Z,13.47
2018-09-14T08:58:26.665Z,18.97
2018-09-14T09:00:58.152Z,14.87
2018-09-14T09:03:29.224Z,15.03
2018-09-14T09:06:00.180Z,16.33
2018-09-14T09:08:31.111Z,13.10
2018-09-14T09:11:02.023Z,17.33
2018-09-14T09:13:32.689Z,16.03
2018-09-14T09:16:03.656Z,14.90
2018-09-14T09:18:34.816Z,17.10
2018-09-14T09:21:05.753Z,14.07
2018-09-14T09:23:36.938Z,15.80
2018-09-14T09:26:08.148Z,14.73
2018-09-14T09:28:38.957Z,15.73
2018-09-14T09:31:10.098Z,15.50
2018-09-14T09:33:41.979Z,16.63
2018-09-14T09:36:12.589Z,15.30
2018-09-14T09:38:43.960Z,13.87
2018-09-14T09:41:15.780Z,18.80
2018-09-14T09:43:48.433Z,17.20
2018-09-14T09:46:19.531Z,14.87
2018-09-14T09:48:51.127Z,15.07
2018-09-14T09:51:21.917Z,16.00
2018-09-14T09:53:58.798Z,14.97
2018-09-14T09:56:29.609Z,16.33
2018-09-14T09:59:00.636Z,15.50
2018-09-14T10:01:35.365Z,13.57
2018-09-14T10:04:11.767Z,14.20
2018-09-14T10:06:43.443Z,14.90
2018-09-14T10:09:15.190Z,11.83
2018-09-14T10:11:46.969Z,12.20
2018-09-14T10:14:18.505Z,13.72
2018-09-14T10:16:50.008Z,12.45
2018-09-14T10:19:21.474Z,9.10
2018-09-14T10:21:53.417Z,9.43
2018-09-14T10:24:24.588Z,9.05
2018-09-14T10:26:55.997Z,10.35
2018-09-14T10:29:27.184Z,7.75
2018-09-14T10:31:58.785Z,8.35
2018-09-14T10:34:30.105Z,10.45
2018-09-14T10:37:01.911Z,9.68
2018-09-14T10:39:40.030Z,9.28
2018-09-14T10:42:11.253Z,9.23
2018-09-14T10:44:42.681Z,9.50
2018-09-14T10:47:14.012Z,7.75
2018-09-14T10:49:46.006Z,6.28
2018-09-14T10:52:17.758Z,10.80
2018-09-14T10:54:49.054Z,7.80
2018-09-14T10:57:20.488Z,9.13
2018-09-14T10:59:51.912Z,5.42
2018-09-14T11:02:23.200Z,7.10
2018-09-14T11:04:54.569Z,8.33
2018-09-14T11:07:27.269Z,5.97
2018-09-14T11:09:58.564Z,6.28
2018-09-14T11:12:30.443Z,7.37
2018-09-14T11:15:01.823Z,6.97
2018-09-14T11:17:33.840Z,7.15
2018-09-14T11:20:06.571Z,7.60
2018-09-14T11:22:38.548Z,7.08
2018-09-14T11:25:10.385Z,9.13
2018-09-14T11:27:42.048Z,8.83
2018-09-14T11:30:13.369Z,9.30
2018-09-14T11:32:44.646Z,7.40
2018-09-14T11:35:16.669Z,7.12
2018-09-14T11:37:47.937Z,8.30
2018-09-14T11:40:20.361Z,6.95
2018-09-14T11:42:51.694Z,6.40
2018-09-14T11:45:23.354Z,7.62
2018-09-14T11:47:55.159Z,6.30
2018-09-14T11:50:26.443Z,6.87
2018-09-14T11:52:57.608Z,6.97
2018-09-14T11:55:29.398Z,6.92
2018-09-14T11:58:00.979Z,7.15
2018-09-14T12:00:32.471Z,8.70
2018-09-14T12:03:04.381Z,6.67
2018-09-14T12:05:35.507Z,7.05
2018-09-14T12:08:07.715Z,6.67
2018-09-14T12:10:38.949Z,6.80
2018-09-14T12:13:10.504Z,8.23
2018-09-14T12:15:41.737Z,5.62
2018-09-14T12:18:13.643Z,7.90
2018-09-14T12:20:45.899Z,6.10
2018-09-14T12:23:17.733Z,6.28
2018-09-14T12:25:48.933Z,5.58
2018-09-14T12:28:20.235Z,5.10
2018-09-14T12:30:51.566Z,12.45
2018-09-14T12:33:23.359Z,7.08
2018-09-14T12:35:55.562Z,5.42
2018-09-14T12:38:26.890Z,5.05
2018-09-14T12:40:58.054Z,5.67
2018-09-14T12:43:29.852Z,6.85
2018-09-14T12:46:01.536Z,5.50
2018-09-14T12:48:33.052Z,5.08
2018-09-14T12:51:04.672Z,5.17
2018-09-14T12:53:38.449Z,6.12
2018-09-14T12:56:10.754Z,6.55
2018-09-14T12:58:42.654Z,6.12
2018-09-14T13:01:14.006Z,5.70
2018-09-14T13:03:45.277Z,5.70
2018-09-14T13:06:16.582Z,6.12
2018-09-14T13:08:48.217Z,7.87
2018-09-14T13:11:19.766Z,6.65
2018-09-14T13:13:50.945Z,6.12
2018-09-14T13:16:23.059Z,6.22
2018-09-14T13:18:54.824Z,6.85
2018-09-14T13:21:26.594Z,5.95
2018-09-14T13:23:57.885Z,5.37
2018-09-14T13:26:29.391Z,6.08
2018-09-14T13:29:00.680Z,7.30
2018-09-14T13:31:32.220Z,6.17
2018-09-14T13:34:03.598Z,6.92
2018-09-14T13:36:35.166Z,5.13
2018-09-14T13:39:08.270Z,5.72
2018-09-14T13:41:39.788Z,6.17
2018-09-14T13:44:10.505Z,6.20
2018-09-14T13:46:41.267Z,5.97
2018-09-14T13:49:12.443Z,4.93
2018-09-14T13:51:43.726Z,5.25
2018-09-14T13:54:14.453Z,5.33
2018-09-14T13:56:45.261Z,8.20
2018-09-14T13:59:16.302Z,4.97
2018-09-14T14:01:48.772Z,7.43
2018-09-14T14:04:19.881Z,4.43
2018-09-14T14:06:50.809Z,5.57
2018-09-14T14:09:21.698Z,6.80
2018-09-14T14:11:53.848Z,6.00
2018-09-14T14:14:24.602Z,3.57
2018-09-14T14:16:55.223Z,4.43
2018-09-14T14:19:26.507Z,3.70
2018-09-14T14:21:57.099Z,4.17
2018-09-14T14:24:28.480Z,4.07
2018-09-14T14:26:59.491Z,5.90
2018-09-14T14:29:31.143Z,6.53
2018-09-14T14:32:01.873Z,4.67
2018-09-14T14:34:33.196Z,6.40
2018-09-14T14:37:04.135Z,6.37
2018-09-14T14:39:35.328Z,3.53
2018-09-14T14:42:06.109Z,3.93
2018-09-14T14:44:37.023Z,4.67
2018-09-14T14:47:09.218Z,5.87
2018-09-14T14:49:40.525Z,3.77
2018-09-14T14:52:11.792Z,4.40
2018-09-14T14:54:42.948Z,3.97
2018-09-14T14:57:13.815Z,4.73
2018-09-14T14:59:45.580Z,5.67
2018-09-14T15:02:16.385Z,5.07
2018-09-14T15:04:47.142Z,7.47
2018-09-14T15:07:17.907Z,5.90
2018-09-14T15:09:49.627Z,3.37
2018-09-14T15:12:20.468Z,4.23
2018-09-14T15:14:51.281Z,5.00
2018-09-14T15:17:22.120Z,5.77
2018-09-14T15:19:53.255Z,4.70
2018-09-14T15:22:26.853Z,4.17
2018-09-14T15:24:57.601Z,3.83
2018-09-14T15:27:28.578Z,3.93
2018-09-14T15:29:59.366Z,3.33
2018-09-14T15:32:30.411Z,3.73
2018-09-14T15:35:01.059Z,4.90
2018-09-14T15:37:31.963Z,5.17
2018-09-14T15:40:02.665Z,6.10
2018-09-14T15:42:34.608Z,6.87
2018-09-14T15:45:06.285Z,4.37
2018-09-14T15:47:37.075Z,4.67
2018-09-14T15:50:07.750Z,4.00
2018-09-14T15:52:38.626Z,5.27
2018-09-14T15:55:09.775Z,5.57
2018-09-14T15:57:40.436Z,4.50
2018-09-14T16:00:13.293Z,4.93
2018-09-14T16:02:43.973Z,4.03
2018-09-14T16:05:14.729Z,4.10
2018-09-14T16:07:45.471Z,5.20
2018-09-14T16:10:16.431Z,4.33
2018-09-14T16:12:47.176Z,4.20
2018-09-14T16:15:18.332Z,3.83
2018-09-14T16:17:49.162Z,3.27
2018-09-14T16:20:19.872Z,3.93
2018-09-14T16:22:50.526Z,3.43
2018-09-14T16:25:21.847Z,3.63
2018-09-14T16:27:52.634Z,4.77
2018-09-14T16:30:24.022Z,3.80
2018-09-14T16:32:55.043Z,3.57
2018-09-14T16:35:26.730Z,4.27
2018-09-14T16:37:57.823Z,5.13
2018-09-14T16:40:28.586Z,3.43
2018-09-14T16:42:59.993Z,2.77
2018-09-14T16:45:30.837Z,4.33
2018-09-14T16:48:01.748Z,4.93
2018-09-14T16:50:36.350Z,5.40
2018-09-14T16:53:06.962Z,3.97
2018-09-14T16:55:37.610Z,4.43
2018-09-14T16:58:08.460Z,4.97
2018-09-14T17:00:39.154Z,4.63
2018-09-14T17:03:10.230Z,6.00
2018-09-14T17:05:41.034Z,3.70
2018-09-14T17:08:11.934Z,5.10
2018-09-14T17:10:42.830Z,3.07
2018-09-14T17:13:13.545Z,2.20
2018-09-14T17:15:44.179Z,2.53
2018-09-14T17:18:15.242Z,4.10
2018-09-14T17:20:45.788Z,3.63
2018-09-14T17:23:16.415Z,3.33
2018-09-14T17:25:47.143Z,3.90
2018-09-14T17:28:17.841Z,4.17
2018-09-14T17:30:48.853Z,3.43
2018-09-14T17:33:19.993Z,2.37
2018-09-14T17:35:50.634Z,4.57
2018-09-14T17:38:21.567Z,5.07
2018-09-14T17:40:52.399Z,4.57
2018-09-14T17:43:23.182Z,4.70
2018-09-14T17:45:54.459Z,4.10
2018-09-14T17:48:25.130Z,3.77
2018-09-14T17:50:55.849Z,3.23
2018-09-14T17:53:27.245Z,4.40
2018-09-14T17:55:58.321Z,4.17
2018-09-14T17:58:29.257Z,3.50
2018-09-14T18:01:00.098Z,3.27
2018-09-14T18:03:31.768Z,4.20
2018-09-14T18:06:02.523Z,3.60
2018-09-14T18:08:33.390Z,5.17
2018-09-14T18:11:04.168Z,4.73
2018-09-14T18:13:35.260Z,4.30
2018-09-14T18:16:06.063Z,2.70
2018-09-14T18:18:37.566Z,3.90
2018-09-14T18:21:09.942Z,3.50
2018-09-14T18:23:41.585Z,3.63
2018-09-14T18:26:12.323Z,5.50
2018-09-14T18:28:43.529Z,3.67
2018-09-14T18:31:14.869Z,3.47
2018-09-14T18:33:45.561Z,4.33
2018-09-14T18:36:16.569Z,4.40
2018-09-14T18:38:51.983Z,3.47
2018-09-14T18:41:23.003Z,5.23
2018-09-14T18:43:54.231Z,4.47
2018-09-14T18:46:25.233Z,3.87
2018-09-14T18:48:55.910Z,2.70
2018-09-14T18:51:27.861Z,16.93
2018-09-14T18:53:58.683Z,5.30
2018-09-14T18:56:29.615Z,4.43
2018-09-14T18:59:01.368Z,3.83
2018-09-14T19:01:32.645Z,3.47
2018-09-14T19:04:03.289Z,3.33
2018-09-14T19:06:34.243Z,4.00
2018-09-14T19:09:08.587Z,3.67
2018-09-14T19:11:39.377Z,3.63
2018-09-14T19:14:10.216Z,4.43
2018-09-14T19:16:42.116Z,4.03
2018-09-14T19:19:12.998Z,3.13
2018-09-14T19:21:44.079Z,4.47
2018-09-14T19:24:14.794Z,4.60
2018-09-14T19:26:46.358Z,4.43
2018-09-14T19:29:17.267Z,5.00
2018-09-14T19:31:48.639Z,3.63
2018-09-14T19:34:20.208Z,5.67
2018-09-14T19:36:50.880Z,4.60
2018-09-14T19:39:21.707Z,4.33
2018-09-14T19:41:53.040Z,4.87
2018-09-14T19:44:24.626Z,3.73
2018-09-14T19:46:56.175Z,3.73
2018-09-14T19:49:27.127Z,3.33
2018-09-14T19:51:57.971Z,3.10
2018-09-14T19:54:28.746Z,4.27
2018-09-14T19:57:00.786Z,3.63
2018-09-14T19:59:31.390Z,4.63
2018-09-14T20:02:02.607Z,4.53
2018-09-14T20:04:33.357Z,2.90
2018-09-14T20:07:04.660Z,4.47
2018-09-14T20:09:36.058Z,3.73
2018-09-14T20:12:07.474Z,5.57
2018-09-14T20:14:38.541Z,5.87
2018-09-14T20:17:10.898Z,5.13
2018-09-14T20:19:42.358Z,5.13
2018-09-14T20:22:13.107Z,4.27
2018-09-14T20:24:43.951Z,3.70
2018-09-14T20:27:14.904Z,3.83
2018-09-14T20:29:45.711Z,4.83
2018-09-14T20:32:16.443Z,4.17
2018-09-14T20:34:47.275Z,4.60
2018-09-14T20:37:18.186Z,3.07
2018-09-14T20:39:49.056Z,5.50
2018-09-14T20:42:19.799Z,4.10
2018-09-14T20:44:50.890Z,4.97
2018-09-14T20:47:21.882Z,4.80
2018-09-14T20:49:53.137Z,4.10
2018-09-14T20:52:24.625Z,5.70
2018-09-14T20:54:55.458Z,3.80
2018-09-14T20:57:26.642Z,5.73
2018-09-14T20:59:57.733Z,5.57
2018-09-14T21:02:28.589Z,3.93
2018-09-14T21:04:59.443Z,3.90
2018-09-14T21:07:30.251Z,4.77
2018-09-14T21:10:00.995Z,5.77
2018-09-14T21:12:31.688Z,4.37
2018-09-14T21:15:02.345Z,5.27
2018-09-14T21:17:33.090Z,6.33
2018-09-14T21:20:04.007Z,5.37
2018-09-14T21:22:35.153Z,5.80
2018-09-14T21:25:06.685Z,7.10
2018-09-14T21:27:37.466Z,6.13
2018-09-14T21:30:08.518Z,4.90
2018-09-14T21:32:39.579Z,5.50
2018-09-14T21:35:10.367Z,5.57
2018-09-14T21:37:41.188Z,4.17
2018-09-14T21:40:12.341Z,3.73
2018-09-14T21:42:43.112Z,4.70
2018-09-14T21:45:14.005Z,5.43
2018-09-14T21:47:44.686Z,4.63
2018-09-14T21:50:18.302Z,4.50
2018-09-14T21:52:48.966Z,6.13
2018-09-14T21:55:20.299Z,6.47
2018-09-14T21:57:51.455Z,7.47
2018-09-14T22:00:27.699Z,4.87
2018-09-14T22:02:58.737Z,4.20
2018-09-14T22:05:29.485Z,4.43
2018-09-14T22:08:01.789Z,3.57
2018-09-14T22:10:32.622Z,5.10
2018-09-14T22:13:03.762Z,4.20
2018-09-14T22:15:34.495Z,3.47
2018-09-14T22:18:05.829Z,7.53
2018-09-14T22:20:36.571Z,4.37
2018-09-14T22:23:07.570Z,4.03
2018-09-14T22:25:38.249Z,4.43
2018-09-14T22:28:09.034Z,3.60
2018-09-14T22:30:39.854Z,4.93
2018-09-14T22:33:10.672Z,3.40
2018-09-14T22:35:42.539Z,4.13
2018-09-14T22:38:13.248Z,4.03
2018-09-14T22:40:44.688Z,4.40
2018-09-14T22:43:15.416Z,5.13
2018-09-14T22:45:46.504Z,5.73
2018-09-14T22:48:17.238Z,3.37
2018-09-14T22:50:47.943Z,3.80
2018-09-14T22:53:18.593Z,3.93
2018-09-14T22:55:49.314Z,4.77
2018-09-14T22:58:19.975Z,4.87
2018-09-14T23:00:55.757Z,4.60
2018-09-14T23:03:27.763Z,3.83
2018-09-14T23:06:00.178Z,3.50
2018-09-14T23:08:31.002Z,3.30
2018-09-14T23:11:01.933Z,5.13
2018-09-14T23:13:33.184Z,4.90
2018-09-14T23:16:04.608Z,5.63
2018-09-14T23:18:35.537Z,4.73
2018-09-14T23:21:06.543Z,4.10
2018-09-14T23:23:40.799Z,4.20
2018-09-14T23:26:20.239Z,3.83
2018-09-14T23:28:53.862Z,4.43
2018-09-14T23:31:27.343Z,2.60
2018-09-14T23:34:00.019Z,2.60
2018-09-14T23:36:30.932Z,3.97
2018-09-14T23:39:01.788Z,4.50
2018-09-14T23:41:32.747Z,3.43
2018-09-14T23:44:03.652Z,4.60
2018-09-14T23:46:37.682Z,2.67
2018-09-14T23:49:08.686Z,3.77
2018-09-14T23:51:44.082Z,2.77
2018-09-14T23:54:15.180Z,2.97
2018-09-14T23:56:45.936Z,2.90
2018-09-14T23:59:16.615Z,4.90
